Aérodrome :
LOGIN :

S'inscrire | Disclaimer

   EN    FR    IT 

 










Légende :    VFR   VFR Marginal   IFR   IFR Intensif   IFR Très Intensif
Visi : 
Plafond : 
>= 8 km
>= 3000ft
5 à 8 km
1000 à 3000 ft
1500m à 5 km
500 à 1000 ft
800 à 1500m
200 à 500 ft
< 800m
< 200 ft
Symboles :   Orages  Brouillard  Fortes neiges  Fortes précipitations  Vent > 20 kt
SIGMETs :   Divers  Orages  Givrage  Turbulence  Onde Orograph.  Cendres Volcan.







- Altitude de l'aérodrome : 74 ft
- Code IATA : MRS
- Voir les cartes d'approche


LFML - Marseille / Marignane

DERNIER METAR :
  • 181100Z AUTO 11014KT 9999 BKN040 OVC110 23/13 Q1017 NOSIG

METARs EXPIRÉS :
  • 181030Z AUTO 11013KT 9999 FEW039 BKN110 22/13 Q1018 NOSIG
  • 181000Z AUTO 12011KT 9999 FEW039 BKN120 22/12 Q1018 NOSIG
  • 180930Z AUTO 12011KT 9999 FEW033 22/12 Q1018 NOSIG
  • 180900Z AUTO 07007KT CAVOK 20/12 Q1018 BECMG 15015KT
  • 180830Z AUTO 08008KT CAVOK 19/12 Q1018 BECMG 15015KT

TAF TAF LFML
Valide du 18 à 09h jusqu'au 19 à 15h UTC


180800Z 1809/1915 08010KT CAVOK
BECMG 1809/1811 15015KT
BECMG 1820/1822 09010KT
BECMG 1908/1910 14015KT TX23/1813Z TN16/1901Z
ATIS : +33 4 42 31 15 15
Pas de NOTAMs connus pour ce terrain.



MET'MAP, la Météo Aéronautique d'un coup d'oeil ! - Copyright ORBIFLY Décembre 2007 - Disclaimer

ORBIFLY MET'MAP TEAM :

Programmation & Développement : Alexandra Zaïnal
Conception & Développement : Baudouin d'Aumeries
Co-Programmation & Développement : Marc-Olivier Méhu
Soutien technique & logistique : Manuel Goepfert

Contact : metmap@orbifly.com




SOURCES & CREDITS :

   NOAA